sensor_id;sensor_type;location;lat;lon;timestamp;pressure;altitude;pressure_sealevel;temperature;humidity
70133;BME280;57495;49.922;7.966;2023-12-20T00:01:15;99914.22;;;4.02;100.00
70133;BME280;57495;49.922;7.966;2023-12-20T00:03:18;99919.72;;;3.99;100.00
70133;BME280;57495;49.922;7.966;2023-12-20T00:05:19;99916.13;;;4.00;100.00
70133;BME280;57495;49.922;7.966;2023-12-20T00:07:21;99915.28;;;3.99;100.00
70133;BME280;57495;49.922;7.966;2023-12-20T00:09:22;99919.28;;;4.05;100.00
70133;BME280;57495;49.922;7.966;2023-12-20T00:11:23;99907.88;;;4.04;100.00
70133;BME280;57495;49.922;7.966;2023-12-20T00:13:24;99913.16;;;4.04;100.00
70133;BME280;57495;49.922;7.966;2023-12-20T00:15:25;99912.31;;;4.04;100.00
70133;BME280;57495;49.922;7.966;2023-12-20T00:17:26;99906.16;;;4.03;100.00
70133;BME280;57495;49.922;7.966;2023-12-20T00:19:28;99908.81;;;4.03;100.00
70133;BME280;57495;49.922;7.966;2023-12-20T00:21:30;99905.97;;;4.06;100.00
70133;BME280;57495;49.922;7.966;2023-12-20T00:23:32;99908.63;;;4.06;100.00
70133;BME280;57495;49.922;7.966;2023-12-20T00:25:33;99897.28;;;4.04;100.00
70133;BME280;57495;49.922;7.966;2023-12-20T00:27:35;99892.84;;;4.05;100.00
70133;BME280;57495;49.922;7.966;2023-12-20T00:29:37;99899.94;;;4.04;100.00
70133;BME280;57495;49.922;7.966;2023-12-20T00:31:38;99891.16;;;4.04;100.00
70133;BME280;57495;49.922;7.966;2023-12-20T00:33:39;99892.53;;;4.10;100.00
70133;BME280;57495;49.922;7.966;2023-12-20T00:35:45;99895.59;;;4.03;100.00
70133;BME280;57495;49.922;7.966;2023-12-20T00:37:46;99893.91;;;4.02;100.00
70133;BME280;57495;49.922;7.966;2023-12-20T00:39:47;99892.19;;;4.01;100.00
70133;BME280;57495;49.922;7.966;2023-12-20T00:41:49;99884.25;;;4.01;100.00
70133;BME280;57495;49.922;7.966;2023-12-20T00:43:50;99891.47;;;3.99;100.00
70133;BME280;57495;49.922;7.966;2023-12-20T00:45:52;99883.63;;;3.98;100.00
70133;BME280;57495;49.922;7.966;2023-12-20T00:47:53;99879.94;;;4.00;100.00
70133;BME280;57495;49.922;7.966;2023-12-20T00:49:54;99885.97;;;4.02;100.00
70133;BME280;57495;49.922;7.966;2023-12-20T00:51:56;99869.47;;;3.99;100.00
70133;BME280;57495;49.922;7.966;2023-12-20T00:53:58;99874.66;;;4.00;100.00
70133;BME280;57495;49.922;7.966;2023-12-20T00:55:59;99875.50;;;4.01;100.00
70133;BME280;57495;49.922;7.966;2023-12-20T00:58:01;99868.72;;;3.97;100.00
70133;BME280;57495;49.922;7.966;2023-12-20T01:00:02;99871.25;;;3.98;100.00
70133;BME280;57495;49.922;7.966;2023-12-20T01:02:04;99874.84;;;3.97;100.00
70133;BME280;57495;49.922;7.966;2023-12-20T01:04:05;99865.75;;;4.01;100.00
70133;BME280;57495;49.922;7.966;2023-12-20T01:06:06;99866.38;;;4.05;100.00
70133;BME280;57495;49.922;7.966;2023-12-20T01:08:09;99863.84;;;4.03;100.00
70133;BME280;57495;49.922;7.966;2023-12-20T01:10:09;99873.69;;;4.01;100.00
70133;BME280;57495;49.922;7.966;2023-12-20T01:12:10;99867.66;;;3.99;100.00
70133;BME280;57495;49.922;7.966;2023-12-20T01:14:11;99870.41;;;3.98;100.00
70133;BME280;57495;49.922;7.966;2023-12-20T01:16:12;99868.38;;;4.01;100.00
70133;BME280;57495;49.922;7.966;2023-12-20T01:18:14;99874.66;;;4.00;100.00
70133;BME280;57495;49.922;7.966;2023-12-20T01:20:15;99881.63;;;4.01;100.00
70133;BME280;57495;49.922;7.966;2023-12-20T01:22:16;99873.59;;;4.03;100.00
70133;BME280;57495;49.922;7.966;2023-12-20T01:24:18;99870.09;;;4.02;100.00
70133;BME280;57495;49.922;7.966;2023-12-20T01:26:20;99863.09;;;4.01;100.00
70133;BME280;57495;49.922;7.966;2023-12-20T01:28:21;99858.53;;;4.03;100.00
70133;BME280;57495;49.922;7.966;2023-12-20T01:30:23;99855.91;;;4.03;100.00
70133;BME280;57495;49.922;7.966;2023-12-20T01:32:24;99855.16;;;4.01;100.00
70133;BME280;57495;49.922;7.966;2023-12-20T01:34:25;99861.41;;;4.00;100.00
70133;BME280;57495;49.922;7.966;2023-12-20T01:36:27;99874.66;;;4.00;100.00
70133;BME280;57495;49.922;7.966;2023-12-20T01:38:29;99876.31;;;4.01;100.00
70133;BME280;57495;49.922;7.966;2023-12-20T01:40:32;99890.28;;;4.03;100.00
70133;BME280;57495;49.922;7.966;2023-12-20T01:42:33;99891.47;;;3.99;100.00
70133;BME280;57495;49.922;7.966;2023-12-20T01:44:35;99889.78;;;3.98;100.00
70133;BME280;57495;49.922;7.966;2023-12-20T01:46:36;99889.03;;;3.96;100.00
70133;BME280;57495;49.922;7.966;2023-12-20T01:48:38;99882.59;;;4.00;100.00
70133;BME280;57495;49.922;7.966;2023-12-20T01:50:39;99886.72;;;4.04;100.00
70133;BME280;57495;49.922;7.966;2023-12-20T01:52:42;99890.53;;;4.00;100.00
70133;BME280;57495;49.922;7.966;2023-12-20T01:54:43;99890.28;;;4.03;100.00
70133;BME280;57495;49.922;7.966;2023-12-20T01:56:46;99893.28;;;3.99;100.00
70133;BME280;57495;49.922;7.966;2023-12-20T01:58:48;99889.78;;;3.98;100.00
70133;BME280;57495;49.922;7.966;2023-12-20T02:00:50;99880.97;;;3.98;100.00
70133;BME280;57495;49.922;7.966;2023-12-20T02:02:52;99876.56;;;3.98;100.00
70133;BME280;57495;49.922;7.966;2023-12-20T02:04:55;99885.44;;;3.97;100.00
70133;BME280;57495;49.922;7.966;2023-12-20T02:06:57;99886.50;;;3.95;100.00
70133;BME280;57495;49.922;7.966;2023-12-20T02:09:00;99880.38;;;3.94;100.00
70133;BME280;57495;49.922;7.966;2023-12-20T02:11:01;99874.09;;;3.95;100.00
70133;BME280;57495;49.922;7.966;2023-12-20T02:13:04;99865.09;;;3.98;100.00
70133;BME280;57495;49.922;7.966;2023-12-20T02:15:06;99850.09;;;3.98;100.00
70133;BME280;57495;49.922;7.966;2023-12-20T02:17:08;99844.81;;;3.98;100.00
70133;BME280;57495;49.922;7.966;2023-12-20T02:19:13;99843.75;;;4.01;100.00
70133;BME280;57495;49.922;7.966;2023-12-20T02:21:15;99862.16;;;4.02;100.00
70133;BME280;57495;49.922;7.966;2023-12-20T02:23:18;99860.44;;;4.01;100.00
70133;BME280;57495;49.922;7.966;2023-12-20T02:25:19;99864.16;;;3.99;100.00
70133;BME280;57495;49.922;7.966;2023-12-20T02:27:20;99859.63;;;4.01;100.00
70133;BME280;57495;49.922;7.966;2023-12-20T02:29:22;99868.19;;;4.04;100.00
70133;BME280;57495;49.922;7.966;2023-12-20T02:31:23;99865.34;;;4.07;100.00
70133;BME280;57495;49.922;7.966;2023-12-20T02:33:23;99869.66;;;4.09;100.00
70133;BME280;57495;49.922;7.966;2023-12-20T02:35:25;99861.72;;;4.09;100.00
70133;BME280;57495;49.922;7.966;2023-12-20T02:37:25;99862.47;;;4.11;100.00
70133;BME280;57495;49.922;7.966;2023-12-20T02:39:28;99859.63;;;4.14;100.00
70133;BME280;57495;49.922;7.966;2023-12-20T02:41:29;99859.63;;;4.14;100.00
70133;BME280;57495;49.922;7.966;2023-12-20T02:43:31;99869.03;;;4.18;100.00
70133;BME280;57495;49.922;7.966;2023-12-20T02:45:31;99873.38;;;4.19;100.00
70133;BME280;57495;49.922;7.966;2023-12-20T02:47:33;99884.91;;;4.18;100.00
70133;BME280;57495;49.922;7.966;2023-12-20T02:49:34;99877.50;;;4.23;100.00
70133;BME280;57495;49.922;7.966;2023-12-20T02:51:35;99874.97;;;4.21;100.00
70133;BME280;57495;49.922;7.966;2023-12-20T02:53:38;99866.81;;;4.24;100.00
70133;BME280;57495;49.922;7.966;2023-12-20T02:55:41;99869.56;;;4.23;100.00
70133;BME280;57495;49.922;7.966;2023-12-20T02:57:42;99864.28;;;4.23;100.00
70133;BME280;57495;49.922;7.966;2023-12-20T02:59:44;99854.44;;;4.25;100.00
70133;BME280;57495;49.922;7.966;2023-12-20T03:01:45;99866.81;;;4.24;100.00
70133;BME280;57495;49.922;7.966;2023-12-20T03:03:47;99866.63;;;4.28;100.00
70133;BME280;57495;49.922;7.966;2023-12-20T03:05:48;99872.03;;;4.26;100.00
70133;BME280;57495;49.922;7.966;2023-12-20T03:07:49;99873.50;;;4.30;100.00
70133;BME280;57495;49.922;7.966;2023-12-20T03:09:51;99877.81;;;4.31;100.00
70133;BME280;57495;49.922;7.966;2023-12-20T03:11:54;99889.28;;;4.32;100.00
70133;BME280;57495;49.922;7.966;2023-12-20T03:13:55;99876.97;;;4.31;100.00
70133;BME280;57495;49.922;7.966;2023-12-20T03:15:55;99882.06;;;4.34;100.00
70133;BME280;57495;49.922;7.966;2023-12-20T03:17:57;99888.31;;;4.33;100.00
70133;BME280;57495;49.922;7.966;2023-12-20T03:19:59;99883.09;;;4.31;100.00
70133;BME280;57495;49.922;7.966;2023-12-20T03:22:02;99893.50;;;4.34;100.00
70133;BME280;57495;49.922;7.966;2023-12-20T03:24:04;99898.59;;;4.37;100.00
70133;BME280;57495;49.922;7.966;2023-12-20T03:26:07;99898.78;;;4.34;100.00
70133;BME280;57495;49.922;7.966;2023-12-20T03:28:09;99901.97;;;4.39;100.00
70133;BME280;57495;49.922;7.966;2023-12-20T03:30:11;99896.97;;;4.35;100.00
70133;BME280;57495;49.922;7.966;2023-12-20T03:32:12;99905.78;;;4.35;100.00
70133;BME280;57495;49.922;7.966;2023-12-20T03:34:13;99911.91;;;4.36;100.00
70133;BME280;57495;49.922;7.966;2023-12-20T03:36:15;99907.25;;;4.39;100.00
70133;BME280;57495;49.922;7.966;2023-12-20T03:38:15;99917.66;;;4.42;100.00
70133;BME280;57495;49.922;7.966;2023-12-20T03:40:16;99912.34;;;4.42;100.00
70133;BME280;57495;49.922;7.966;2023-12-20T03:42:18;99904.63;;;4.39;100.00
70133;BME280;57495;49.922;7.966;2023-12-20T03:44:21;99914.03;;;4.43;100.00
70133;BME280;57495;49.922;7.966;2023-12-20T03:46:22;99912.13;;;4.45;100.00
70133;BME280;57495;49.922;7.966;2023-12-20T03:48:23;99920.06;;;4.45;100.00
70133;BME280;57495;49.922;7.966;2023-12-20T03:50:24;99908.53;;;4.47;100.00
70133;BME280;57495;49.922;7.966;2023-12-20T03:52:25;99908.75;;;4.43;100.00
70133;BME280;57495;49.922;7.966;2023-12-20T03:54:27;99911.59;;;4.40;100.00
70133;BME280;57495;49.922;7.966;2023-12-20T03:56:28;99917.66;;;4.42;100.00
70133;BME280;57495;49.922;7.966;2023-12-20T03:58:29;99905.88;;;4.47;100.00
70133;BME280;57495;49.922;7.966;2023-12-20T04:00:32;99909.38;;;4.47;100.00
70133;BME280;57495;49.922;7.966;2023-12-20T04:02:34;99909.38;;;4.47;100.00
70133;BME280;57495;49.922;7.966;2023-12-20T04:04:34;99911.72;;;4.39;100.00
70133;BME280;57495;49.922;7.966;2023-12-20T04:06:35;99914.03;;;4.31;100.00
70133;BME280;57495;49.922;7.966;2023-12-20T04:08:37;99924.97;;;4.39;100.00
70133;BME280;57495;49.922;7.966;2023-12-20T04:10:38;99920.94;;;4.33;100.00
70133;BME280;57495;49.922;7.966;2023-12-20T04:12:39;99923.97;;;4.27;100.00
70133;BME280;57495;49.922;7.966;2023-12-20T04:14:40;99925.47;;;4.31;100.00
70133;BME280;57495;49.922;7.966;2023-12-20T04:16:42;99938.19;;;4.39;100.00
70133;BME280;57495;49.922;7.966;2023-12-20T04:18:43;99945.16;;;4.40;100.00
70133;BME280;57495;49.922;7.966;2023-12-20T04:20:45;99944.53;;;4.36;100.00
70133;BME280;57495;49.922;7.966;2023-12-20T04:22:46;99946.13;;;4.39;100.00
70133;BME280;57495;49.922;7.966;2023-12-20T04:24:48;99949.63;;;4.39;100.00
70133;BME280;57495;49.922;7.966;2023-12-20T04:26:49;99943.06;;;4.45;100.00
70133;BME280;57495;49.922;7.966;2023-12-20T04:28:50;99952.81;;;4.44;100.00
70133;BME280;57495;49.922;7.966;2023-12-20T04:30:52;99955.97;;;4.50;100.00
70133;BME280;57495;49.922;7.966;2023-12-20T04:32:54;99964.25;;;4.58;100.00
70133;BME280;57495;49.922;7.966;2023-12-20T04:34:57;99966.88;;;4.58;100.00
70133;BME280;57495;49.922;7.966;2023-12-20T04:36:58;99967.84;;;4.57;100.00
70133;BME280;57495;49.922;7.966;2023-12-20T04:39:01;99977.47;;;4.58;100.00
70133;BME280;57495;49.922;7.966;2023-12-20T04:41:03;99972.28;;;4.56;100.00
70133;BME280;57495;49.922;7.966;2023-12-20T04:43:05;99969.53;;;4.58;100.00
70133;BME280;57495;49.922;7.966;2023-12-20T04:45:06;99976.31;;;4.62;100.00
70133;BME280;57495;49.922;7.966;2023-12-20T04:47:08;99980.78;;;4.61;100.00
70133;BME280;57495;49.922;7.966;2023-12-20T04:49:11;99975.47;;;4.61;100.00
70133;BME280;57495;49.922;7.966;2023-12-20T04:51:11;99978.41;;;4.57;100.00
70133;BME280;57495;49.922;7.966;2023-12-20T04:53:13;99988.38;;;4.53;100.00
70133;BME280;57495;49.922;7.966;2023-12-20T04:55:14;99989.44;;;4.51;100.00
70133;BME280;57495;49.922;7.966;2023-12-20T04:57:15;99981.69;;;4.48;100.00
70133;BME280;57495;49.922;7.966;2023-12-20T04:59:16;99989.22;;;4.41;100.00
70133;BME280;57495;49.922;7.966;2023-12-20T05:01:17;99983.28;;;4.37;100.00
70133;BME280;57495;49.922;7.966;2023-12-20T05:03:19;99969.50;;;4.32;100.00
70133;BME280;57495;49.922;7.966;2023-12-20T05:05:21;99967.19;;;4.28;100.00
70133;BME280;57495;49.922;7.966;2023-12-20T05:07:22;99968.88;;;4.29;100.00
70133;BME280;57495;49.922;7.966;2023-12-20T05:09:23;99975.88;;;4.30;100.00
70133;BME280;57495;49.922;7.966;2023-12-20T05:11:25;99978.06;;;4.23;100.00
70133;BME280;57495;49.922;7.966;2023-12-20T05:13:26;99979.25;;;4.19;100.00
70133;BME280;57495;49.922;7.966;2023-12-20T05:15:28;99981.34;;;4.14;100.00
70133;BME280;57495;49.922;7.966;2023-12-20T05:17:29;99983.06;;;4.15;100.00
70133;BME280;57495;49.922;7.966;2023-12-20T05:19:29;99984.72;;;4.16;100.00
70133;BME280;57495;49.922;7.966;2023-12-20T05:21:32;99981.88;;;4.19;100.00
70133;BME280;57495;49.922;7.966;2023-12-20T05:23:33;99983.56;;;4.20;100.00
70133;BME280;57495;49.922;7.966;2023-12-20T05:25:35;99986.03;;;4.23;100.00
70133;BME280;57495;49.922;7.966;2023-12-20T05:27:36;99987.94;;;4.21;100.00
70133;BME280;57495;49.922;7.966;2023-12-20T05:29:37;99983.38;;;4.23;100.00
70133;BME280;57495;49.922;7.966;2023-12-20T05:31:38;99970.44;;;4.05;100.00
70133;BME280;57495;49.922;7.966;2023-12-20T05:33:38;99980.47;;;4.00;100.00
70133;BME280;57495;49.922;7.966;2023-12-20T05:35:40;99983.91;;;3.88;100.00
70133;BME280;57495;49.922;7.966;2023-12-20T05:37:43;99976.81;;;3.88;100.00
70133;BME280;57495;49.922;7.966;2023-12-20T05:39:44;99971.94;;;3.82;100.00
70133;BME280;57495;49.922;7.966;2023-12-20T05:41:44;99975.56;;;3.81;100.00
70133;BME280;57495;49.922;7.966;2023-12-20T05:43:46;99978.25;;;3.67;100.00
70133;BME280;57495;49.922;7.966;2023-12-20T05:45:47;99985.22;;;3.68;100.00
70133;BME280;57495;49.922;7.966;2023-12-20T05:47:49;99990.81;;;3.63;100.00
70133;BME280;57495;49.922;7.966;2023-12-20T05:49:50;99977.59;;;3.63;100.00
70133;BME280;57495;49.922;7.966;2023-12-20T05:51:51;99976.09;;;3.59;100.00
70133;BME280;57495;49.922;7.966;2023-12-20T05:53:54;99978.94;;;3.56;100.00
70133;BME280;57495;49.922;7.966;2023-12-20T05:55:56;99983.38;;;3.56;100.00
70133;BME280;57495;49.922;7.966;2023-12-20T05:57:57;99985.97;;;3.43;100.00
70133;BME280;57495;49.922;7.966;2023-12-20T05:59:58;99993.16;;;3.41;100.00
70133;BME280;57495;49.922;7.966;2023-12-20T06:02:00;99987.13;;;3.39;100.00
70133;BME280;57495;49.922;7.966;2023-12-20T06:04:01;99991.44;;;3.40;100.00
70133;BME280;57495;49.922;7.966;2023-12-20T06:06:07;99991.84;;;3.34;100.00
70133;BME280;57495;49.922;7.966;2023-12-20T06:08:08;100002.59;;;3.31;100.00
70133;BME280;57495;49.922;7.966;2023-12-20T06:10:11;100006.38;;;3.26;100.00
70133;BME280;57495;49.922;7.966;2023-12-20T06:12:14;100014.69;;;3.20;100.00
70133;BME280;57495;49.922;7.966;2023-12-20T06:14:15;100018.09;;;3.22;100.00
70133;BME280;57495;49.922;7.966;2023-12-20T06:16:16;100013.56;;;3.24;100.00
70133;BME280;57495;49.922;7.966;2023-12-20T06:18:18;100017.78;;;3.27;100.00
70133;BME280;57495;49.922;7.966;2023-12-20T06:20:19;100021.28;;;3.27;100.00
70133;BME280;57495;49.922;7.966;2023-12-20T06:22:21;100018.44;;;3.31;100.00
70133;BME280;57495;49.922;7.966;2023-12-20T06:24:22;100024.47;;;3.33;100.00
70133;BME280;57495;49.922;7.966;2023-12-20T06:26:29;100020.69;;;3.37;100.00
70133;BME280;57495;49.922;7.966;2023-12-20T06:28:30;100017.69;;;3.43;100.00
70133;BME280;57495;49.922;7.966;2023-12-20T06:30:32;100023.13;;;3.54;100.00
70133;BME280;57495;49.922;7.966;2023-12-20T06:32:34;100031.06;;;3.54;100.00
70133;BME280;57495;49.922;7.966;2023-12-20T06:34:35;100029.25;;;3.55;100.00
70133;BME280;57495;49.922;7.966;2023-12-20T06:36:38;100017.84;;;3.54;100.00
70133;BME280;57495;49.922;7.966;2023-12-20T06:38:39;100018.69;;;3.55;100.00
70133;BME280;57495;49.922;7.966;2023-12-20T06:40:42;100010.66;;;3.56;100.00
70133;BME280;57495;49.922;7.966;2023-12-20T06:42:45;100006.72;;;3.49;100.00
70133;BME280;57495;49.922;7.966;2023-12-20T06:44:47;100004.63;;;3.54;100.00
70133;BME280;57495;49.922;7.966;2023-12-20T06:46:48;100012.47;;;3.56;100.00
70133;BME280;57495;49.922;7.966;2023-12-20T06:48:50;100016.88;;;3.55;100.00
70133;BME280;57495;49.922;7.966;2023-12-20T06:50:51;100016.69;;;3.58;100.00
70133;BME280;57495;49.922;7.966;2023-12-20T06:52:54;100017.00;;;3.54;100.00
70133;BME280;57495;49.922;7.966;2023-12-20T06:54:55;100015.00;;;3.57;100.00
70133;BME280;57495;49.922;7.966;2023-12-20T06:56:57;100009.91;;;3.54;100.00
70133;BME280;57495;49.922;7.966;2023-12-20T06:58:59;100006.13;;;3.58;100.00
70133;BME280;57495;49.922;7.966;2023-12-20T07:01:01;100008.94;;;3.55;100.00
70133;BME280;57495;49.922;7.966;2023-12-20T07:03:02;100014.81;;;3.60;100.00
70133;BME280;57495;49.922;7.966;2023-12-20T07:05:04;100019.34;;;3.58;100.00
70133;BME280;57495;49.922;7.966;2023-12-20T07:07:05;100026.34;;;3.59;100.00
70133;BME280;57495;49.922;7.966;2023-12-20T07:09:07;100032.75;;;3.55;100.00
70133;BME280;57495;49.922;7.966;2023-12-20T07:11:08;100033.72;;;3.54;100.00
70133;BME280;57495;49.922;7.966;2023-12-20T07:13:09;100039.75;;;3.56;100.00
70133;BME280;57495;49.922;7.966;2023-12-20T07:15:12;100041.47;;;3.57;100.00
70133;BME280;57495;49.922;7.966;2023-12-20T07:17:12;100045.69;;;3.60;100.00
70133;BME280;57495;49.922;7.966;2023-12-20T07:19:15;100048.41;;;3.58;100.00
70133;BME280;57495;49.922;7.966;2023-12-20T07:21:17;100044.63;;;3.62;100.00
70133;BME280;57495;49.922;7.966;2023-12-20T07:23:18;100051.91;;;3.59;100.00
70133;BME280;57495;49.922;7.966;2023-12-20T07:25:20;100059.84;;;3.59;100.00
70133;BME280;57495;49.922;7.966;2023-12-20T07:27:21;100052.22;;;3.54;100.00
70133;BME280;57495;49.922;7.966;2023-12-20T07:29:23;100062.78;;;3.68;100.00
70133;BME280;57495;49.922;7.966;2023-12-20T07:31:24;100067.31;;;3.66;100.00
70133;BME280;57495;49.922;7.966;2023-12-20T07:33:27;100061.88;;;3.82;100.00
70133;BME280;57495;49.922;7.966;2023-12-20T07:35:28;100068.97;;;3.82;100.00
70133;BME280;57495;49.922;7.966;2023-12-20T07:37:30;100065.47;;;3.81;100.00
70133;BME280;57495;49.922;7.966;2023-12-20T07:39:31;100064.22;;;3.87;100.00
70133;BME280;57495;49.922;7.966;2023-12-20T07:41:33;100069.16;;;3.79;100.00
70133;BME280;57495;49.922;7.966;2023-12-20T07:43:34;100069.41;;;3.88;100.00
70133;BME280;57495;49.922;7.966;2023-12-20T07:45:35;100071.75;;;3.93;100.00
70133;BME280;57495;49.922;7.966;2023-12-20T07:47:37;100077.06;;;3.93;100.00
70133;BME280;57495;49.922;7.966;2023-12-20T07:49:38;100073.75;;;3.90;100.00
70133;BME280;57495;49.922;7.966;2023-12-20T07:51:39;100081.59;;;3.91;100.00
70133;BME280;57495;49.922;7.966;2023-12-20T07:53:40;100077.75;;;3.82;100.00
70133;BME280;57495;49.922;7.966;2023-12-20T07:55:42;100072.00;;;3.76;100.00
70133;BME280;57495;49.922;7.966;2023-12-20T07:57:43;100076.00;;;3.68;100.00
70133;BME280;57495;49.922;7.966;2023-12-20T07:59:45;100084.19;;;3.64;100.00
70133;BME280;57495;49.922;7.966;2023-12-20T08:01:46;100081.28;;;3.68;100.00
70133;BME280;57495;49.922;7.966;2023-12-20T08:03:49;100088.06;;;3.73;100.00
70133;BME280;57495;49.922;7.966;2023-12-20T08:05:51;100075.59;;;3.75;100.00
70133;BME280;57495;49.922;7.966;2023-12-20T08:07:51;100076.00;;;3.68;100.00
70133;BME280;57495;49.922;7.966;2023-12-20T08:09:54;100086.16;;;3.75;100.00
70133;BME280;57495;49.922;7.966;2023-12-20T08:11:57;100083.53;;;3.75;100.00
70133;BME280;57495;49.922;7.966;2023-12-20T08:13:59;100091.28;;;3.78;100.00
70133;BME280;57495;49.922;7.966;2023-12-20T08:16:01;100087.88;;;3.76;100.00
70133;BME280;57495;49.922;7.966;2023-12-20T08:18:03;100080.03;;;3.74;100.00
70133;BME280;57495;49.922;7.966;2023-12-20T08:20:07;100074.84;;;3.73;100.00
70133;BME280;57495;49.922;7.966;2023-12-20T08:22:08;100075.41;;;3.78;100.00
70133;BME280;57495;49.922;7.966;2023-12-20T08:24:10;100077.56;;;3.85;100.00
70133;BME280;57495;49.922;7.966;2023-12-20T08:26:10;100081.41;;;3.94;100.00
70133;BME280;57495;49.922;7.966;2023-12-20T08:28:12;100093.28;;;4.01;100.00
70133;BME280;57495;49.922;7.966;2023-12-20T08:30:13;100098.53;;;4.16;100.00
70133;BME280;57495;49.922;7.966;2023-12-20T08:32:17;100099.91;;;4.21;100.00
70133;BME280;57495;49.922;7.966;2023-12-20T08:34:18;100101.13;;;4.30;100.00
70133;BME280;57495;49.922;7.966;2023-12-20T08:36:21;100097.03;;;4.39;100.00
70133;BME280;57495;49.922;7.966;2023-12-20T08:38:23;100101.06;;;4.44;100.00
70133;BME280;57495;49.922;7.966;2023-12-20T08:40:24;100102.56;;;4.49;100.00
70133;BME280;57495;49.922;7.966;2023-12-20T08:42:26;100102.75;;;4.45;100.00
70133;BME280;57495;49.922;7.966;2023-12-20T08:44:31;100109.25;;;4.54;100.00
70133;BME280;57495;49.922;7.966;2023-12-20T08:46:32;100114.44;;;4.56;100.00
70133;BME280;57495;49.922;7.966;2023-12-20T08:48:34;100114.53;;;4.54;100.00
70133;BME280;57495;49.922;7.966;2023-12-20T08:50:35;100112.34;;;4.61;100.00
70133;BME280;57495;49.922;7.966;2023-12-20T08:52:38;100108.09;;;4.58;100.00
70133;BME280;57495;49.922;7.966;2023-12-20T08:54:40;100108.09;;;4.58;100.00
70133;BME280;57495;49.922;7.966;2023-12-20T08:56:41;100111.38;;;4.62;100.00
70133;BME280;57495;49.922;7.966;2023-12-20T08:58:44;100115.72;;;4.63;100.00
70133;BME280;57495;49.922;7.966;2023-12-20T09:00:45;100119.13;;;4.65;100.00
70133;BME280;57495;49.922;7.966;2023-12-20T09:02:47;100117.22;;;4.67;100.00
70133;BME280;57495;49.922;7.966;2023-12-20T09:04:48;100112.13;;;4.64;100.00
70133;BME280;57495;49.922;7.966;2023-12-20T09:06:49;100114.88;;;4.62;100.00
70133;BME280;57495;49.922;7.966;2023-12-20T09:08:52;100110.44;;;4.63;100.00
70133;BME280;57495;49.922;7.966;2023-12-20T09:10:54;100112.13;;;4.64;100.00
70133;BME280;57495;49.922;7.966;2023-12-20T09:12:55;100115.72;;;4.63;100.00
70133;BME280;57495;49.922;7.966;2023-12-20T09:14:57;100108.53;;;4.65;100.00
70133;BME280;57495;49.922;7.966;2023-12-20T09:16:58;100104.72;;;4.69;100.00
70133;BME280;57495;49.922;7.966;2023-12-20T09:19:01;100098.34;;;4.72;100.00
70133;BME280;57495;49.922;7.966;2023-12-20T09:21:01;100099.00;;;4.75;100.00
70133;BME280;57495;49.922;7.966;2023-12-20T09:23:03;100112.97;;;4.77;100.00
70133;BME280;57495;49.922;7.966;2023-12-20T09:25:06;100105.03;;;4.77;100.00
70133;BME280;57495;49.922;7.966;2023-12-20T09:27:07;100104.09;;;4.78;100.00
70133;BME280;57495;49.922;7.966;2023-12-20T09:29:08;100090.75;;;4.80;100.00
70133;BME280;57495;49.922;7.966;2023-12-20T09:31:15;100100.50;;;4.79;100.00
70133;BME280;57495;49.922;7.966;2023-12-20T09:33:16;100092.25;;;4.84;100.00
70133;BME280;57495;49.922;7.966;2023-12-20T09:35:18;100096.69;;;4.83;100.00
70133;BME280;57495;49.922;7.966;2023-12-20T09:37:19;100095.72;;;4.84;100.00
70133;BME280;57495;49.922;7.966;2023-12-20T09:39:20;100105.81;;;4.79;100.00
70133;BME280;57495;49.922;7.966;2023-12-20T09:41:23;100099.34;;;4.83;100.00
70133;BME280;57495;49.922;7.966;2023-12-20T09:43:26;100106.41;;;4.83;100.00
70133;BME280;57495;49.922;7.966;2023-12-20T09:45:30;100108.34;;;4.81;100.00
70133;BME280;57495;49.922;7.966;2023-12-20T09:47:32;100117.88;;;4.83;100.00
70133;BME280;57495;49.922;7.966;2023-12-20T09:49:34;100110.88;;;4.82;100.00
70133;BME280;57495;49.922;7.966;2023-12-20T09:51:36;100113.53;;;4.82;100.00
70133;BME280;57495;49.922;7.966;2023-12-20T09:53:38;100108.97;;;4.84;100.00
70133;BME280;57495;49.922;7.966;2023-12-20T09:55:41;100099.66;;;4.92;100.00
70133;BME280;57495;49.922;7.966;2023-12-20T09:57:44;100108.16;;;4.97;100.00
70133;BME280;57495;49.922;7.966;2023-12-20T09:59:45;100105.31;;;5.00;100.00
70133;BME280;57495;49.922;7.966;2023-12-20T10:01:48;100111.25;;;5.03;100.00
70133;BME280;57495;49.922;7.966;2023-12-20T10:03:50;100110.38;;;5.03;100.00
70133;BME280;57495;49.922;7.966;2023-12-20T10:05:54;100111.66;;;5.10;100.00
70133;BME280;57495;49.922;7.966;2023-12-20T10:07:56;100119.59;;;5.10;100.00
70133;BME280;57495;49.922;7.966;2023-12-20T10:09:57;100119.19;;;5.16;100.00
70133;BME280;57495;49.922;7.966;2023-12-20T10:11:58;100123.31;;;5.20;100.00
70133;BME280;57495;49.922;7.966;2023-12-20T10:14:01;100119.31;;;5.28;100.00
70133;BME280;57495;49.922;7.966;2023-12-20T10:16:03;100117.28;;;5.31;100.00
70133;BME280;57495;49.922;7.966;2023-12-20T10:18:05;100116.22;;;5.34;100.00
70133;BME280;57495;49.922;7.966;2023-12-20T10:20:07;100119.41;;;5.39;100.00
70133;BME280;57495;49.922;7.966;2023-12-20T10:22:10;100108.25;;;5.34;100.00
70133;BME280;57495;49.922;7.966;2023-12-20T10:24:16;100099.22;;;5.36;100.00
70133;BME280;57495;49.922;7.966;2023-12-20T10:26:21;100094.56;;;5.40;100.00
70133;BME280;57495;49.922;7.966;2023-12-20T10:28:22;100089.25;;;5.40;100.00
70133;BME280;57495;49.922;7.966;2023-12-20T10:30:28;100090.13;;;5.40;100.00
70133;BME280;57495;49.922;7.966;2023-12-20T10:32:30;100075.06;;;5.41;100.00
70133;BME280;57495;49.922;7.966;2023-12-20T10:34:32;100081.72;;;5.47;100.00
70133;BME280;57495;49.922;7.966;2023-12-20T10:36:34;100078.00;;;5.49;100.00
70133;BME280;57495;49.922;7.966;2023-12-20T10:38:37;100075.88;;;5.54;100.00
70133;BME280;57495;49.922;7.966;2023-12-20T10:40:41;100074.41;;;5.50;100.00